TimeCST,TemperatureF,Dew PointF,Humidity,Sea Level PressureIn,VisibilityMPH,Wind Direction,Wind SpeedMPH,Gust SpeedMPH,PrecipitationIn,Events,Conditions,WindDirDegrees,DateUTC
12:15 AM,51.1,50.0,96,29.94,7.0,West,8.1,-,0.05,Rain,Rain,260,2012-11-12 06:15:00
12:35 AM,46.6,44.8,93,29.96,10.0,WNW,15.0,20.7,0.09,Rain,Rain,290,2012-11-12 06:35:00
12:55 AM,45.0,42.8,92,29.96,10.0,WNW,11.5,-,0.12,Rain,Light Rain,290,2012-11-12 06:55:00
1:15 AM,44.6,42.8,93,29.96,10.0,NW,12.7,-,N/A,Rain,Rain,310,2012-11-12 07:15:00
1:35 AM,43.2,41.4,93,29.98,10.0,NW,10.4,-,0.03,Rain,Rain,310,2012-11-12 07:35:00
1:55 AM,42.3,40.8,95,29.99,10.0,WNW,10.4,-,0.04,Rain,Light Rain,290,2012-11-12 07:55:00
2:15 AM,41.5,39.6,93,30.00,10.0,NW,13.8,18.4,0.04,Rain,Rain,310,2012-11-12 08:15:00
2:35 AM,40.1,38.5,94,30.03,10.0,WNW,10.4,-,0.07,Rain,Rain,290,2012-11-12 08:35:00
2:55 AM,39.2,37.6,94,29.99,3.0,WNW,11.5,-,0.13,Rain,Light Rain,300,2012-11-12 08:55:00
3:15 AM,39.2,37.6,94,30.01,10.0,WNW,10.4,-,0.02,Rain,Rain,290,2012-11-12 09:15:00
3:35 AM,38.3,36.5,93,30.03,7.0,WNW,13.8,-,0.05,Rain,Rain,290,2012-11-12 09:35:00
3:55 AM,37.9,36.3,94,30.02,7.0,WNW,8.1,-,0.06,Rain,Light Rain,290,2012-11-12 09:55:00
4:15 AM,37.2,35.6,94,30.03,10.0,WNW,10.4,-,0.02,Rain,Light Rain,300,2012-11-12 10:15:00
4:35 AM,36.3,34.5,93,30.04,7.0,WNW,12.7,-,0.02,Rain,Light Rain,300,2012-11-12 10:35:00
4:55 AM,35.6,33.8,93,30.04,4.0,WNW,8.1,-,0.03,,Overcast,290,2012-11-12 10:55:00
5:15 AM,34.9,33.3,94,30.06,3.0,West,9.2,-,0.01,Snow,Light Snow,280,2012-11-12 11:15:00
5:35 AM,34.9,33.1,93,30.06,7.0,WNW,10.4,19.6,0.01,Snow,Light Snow,300,2012-11-12 11:35:00
5:55 AM,34.7,32.0,90,30.08,10.0,WNW,12.7,19.6,0.02,Snow,Light Snow,290,2012-11-12 11:55:00
6:15 AM,34.0,31.3,90,30.07,10.0,West,16.1,27.6,N/A,,Overcast,280,2012-11-12 12:15:00
6:35 AM,33.8,30.7,89,30.10,10.0,West,16.1,24.2,N/A,,Overcast,270,2012-11-12 12:35:00
6:55 AM,33.4,30.2,88,30.13,10.0,West,19.6,23.0,N/A,,Overcast,270,2012-11-12 12:55:00
7:15 AM,32.9,29.3,87,30.14,10.0,West,13.8,21.9,N/A,,Overcast,270,2012-11-12 13:15:00
7:35 AM,32.0,28.8,88,30.16,10.0,West,17.3,25.3,N/A,,Overcast,270,2012-11-12 13:35:00
7:55 AM,31.6,26.6,82,30.16,10.0,West,18.4,28.8,N/A,,Mostly Cloudy,270,2012-11-12 13:55:00
8:15 AM,32.0,26.8,81,30.17,10.0,West,16.1,23.0,N/A,,Scattered Clouds,270,2012-11-12 14:15:00
8:35 AM,32.0,25.5,77,30.18,10.0,West,16.1,27.6,N/A,,Unknown,280,2012-11-12 14:35:00
8:55 AM,32.2,26.4,79,30.18,10.0,West,18.4,25.3,N/A,,Unknown,270,2012-11-12 14:55:00
9:15 AM,32.0,25.7,78,30.18,10.0,West,19.6,-,N/A,,Clear,270,2012-11-12 15:15:00
9:35 AM,33.1,26.4,77,30.19,10.0,West,13.8,26.5,N/A,,Clear,280,2012-11-12 15:35:00
9:55 AM,33.6,27.3,78,30.19,10.0,West,15.0,25.3,N/A,,Clear,270,2012-11-12 15:55:00
10:15 AM,33.8,27.9,79,30.19,10.0,West,17.3,21.9,N/A,,Clear,270,2012-11-12 16:15:00
10:35 AM,34.3,26.6,73,30.19,10.0,West,15.0,24.2,N/A,,Clear,270,2012-11-12 16:35:00
10:55 AM,35.4,27.0,71,30.20,10.0,West,17.3,23.0,N/A,,Clear,260,2012-11-12 16:55:00
11:15 AM,35.6,27.1,71,30.20,10.0,WSW,18.4,26.5,N/A,,Unknown,250,2012-11-12 17:15:00
11:35 AM,36.5,27.9,71,30.20,10.0,West,17.3,23.0,N/A,,Unknown,270,2012-11-12 17:35:00
11:55 AM,36.1,27.1,70,30.19,10.0,West,18.4,26.5,N/A,,Unknown,260,2012-11-12 17:55:00
12:15 PM,36.5,27.9,71,30.19,10.0,WSW,20.7,26.5,N/A,,Clear,250,2012-11-12 18:15:00
12:35 PM,37.0,26.4,65,30.19,10.0,West,24.2,29.9,N/A,,Unknown,260,2012-11-12 18:35:00
12:55 PM,37.6,26.4,64,30.20,10.0,West,19.6,25.3,N/A,,Clear,260,2012-11-12 18:55:00
1:15 PM,37.6,26.6,65,30.19,10.0,WSW,19.6,-,N/A,,Scattered Clouds,250,2012-11-12 19:15:00
1:35 PM,37.8,26.2,63,30.20,10.0,West,21.9,28.8,N/A,,Scattered Clouds,260,2012-11-12 19:35:00
1:55 PM,37.4,24.8,60,30.20,10.0,WSW,18.4,26.5,N/A,,Unknown,250,2012-11-12 19:55:00
2:15 PM,37.6,25.9,63,30.20,10.0,West,19.6,26.5,N/A,,Scattered Clouds,260,2012-11-12 20:15:00
2:35 PM,37.4,25.0,61,30.20,10.0,West,17.3,27.6,N/A,,Scattered Clouds,260,2012-11-12 20:35:00
2:55 PM,37.6,25.5,62,30.20,10.0,WSW,18.4,24.2,N/A,,Unknown,250,2012-11-12 20:55:00
3:15 PM,37.4,26.6,65,30.21,10.0,WSW,20.7,-,N/A,,Unknown,240,2012-11-12 21:15:00
3:35 PM,37.4,25.3,62,30.23,10.0,WSW,19.6,25.3,N/A,,Clear,250,2012-11-12 21:35:00
3:55 PM,37.0,25.2,62,30.24,10.0,West,18.4,24.2,N/A,,Unknown,260,2012-11-12 21:55:00
4:15 PM,36.7,24.8,62,30.25,10.0,West,12.7,-,N/A,,Unknown,260,2012-11-12 22:15:00
4:35 PM,36.1,25.2,64,30.25,10.0,West,10.4,19.6,N/A,,Unknown,260,2012-11-12 22:35:00
4:55 PM,35.6,24.6,64,30.26,10.0,West,10.4,-,N/A,,Clear,260,2012-11-12 22:55:00
5:15 PM,35.2,24.8,66,30.27,10.0,West,9.2,-,N/A,,Clear,260,2012-11-12 23:15:00
5:35 PM,34.3,25.5,70,30.28,10.0,WSW,6.9,-,N/A,,Clear,250,2012-11-12 23:35:00
5:55 PM,34.7,26.2,71,30.28,10.0,WSW,6.9,-,N/A,,Mostly Cloudy,250,2012-11-12 23:55:00
6:15 PM,33.8,26.4,74,30.28,10.0,WSW,5.8,-,N/A,,Unknown,240,2012-11-13 00:15:00
6:35 PM,33.4,26.4,75,30.29,10.0,SW,5.8,-,N/A,,Unknown,230,2012-11-13 00:35:00
6:55 PM,32.9,26.8,78,30.29,10.0,SW,5.8,-,N/A,,Unknown,230,2012-11-13 00:55:00
7:15 PM,33.8,26.6,75,30.30,10.0,SW,4.6,-,N/A,,Unknown,220,2012-11-13 01:15:00
7:35 PM,32.4,27.0,80,30.31,10.0,SW,4.6,-,N/A,,Unknown,220,2012-11-13 01:35:00
7:55 PM,32.4,27.0,80,30.32,10.0,SW,5.8,-,N/A,,Unknown,220,2012-11-13 01:55:00
8:15 PM,32.2,27.3,82,30.32,10.0,SW,5.8,-,N/A,,Unknown,230,2012-11-13 02:15:00
8:35 PM,32.2,27.5,83,30.33,10.0,SW,5.8,-,N/A,,Unknown,230,2012-11-13 02:35:00
8:55 PM,32.0,27.5,83,30.33,10.0,SW,5.8,-,N/A,,Clear,230,2012-11-13 02:55:00
9:15 PM,32.0,27.5,83,30.34,10.0,SW,4.6,-,N/A,,Clear,230,2012-11-13 03:15:00
9:35 PM,31.8,27.3,83,30.34,10.0,SW,4.6,-,N/A,,Clear,230,2012-11-13 03:35:00
9:55 PM,31.6,27.1,83,30.34,10.0,WSW,6.9,-,N/A,,Clear,240,2012-11-13 03:55:00
10:15 PM,32.0,27.5,83,30.35,10.0,SW,5.8,-,N/A,,Clear,230,2012-11-13 04:15:00
10:35 PM,31.6,27.5,85,30.35,10.0,SW,5.8,-,N/A,,Clear,220,2012-11-13 04:35:00
10:55 PM,30.7,27.1,86,30.35,10.0,WSW,4.6,-,N/A,,Clear,250,2012-11-13 04:55:00
11:15 PM,30.9,27.0,85,30.35,10.0,WSW,6.9,-,N/A,,Clear,240,2012-11-13 05:15:00
11:35 PM,31.8,27.5,84,30.36,10.0,WSW,6.9,-,N/A,,Clear,240,2012-11-13 05:35:00
11:55 PM,31.1,27.3,86,30.36,10.0,WSW,6.9,-,N/A,,Clear,240,2012-11-13 05:55:00